You are not logged in, Click here to log in
新山一國際機場SGN / VVTS 越南胡志明市
ICAO: VVTS Country: 越南胡志明市
Latitude: 10.8185 Longitude: 106.659
Total Arrivals: 62 Total Departures: 66
Latest Arrival: KA14581 (RCKH-VVTS)登祥. 黃 Latest Departure: VJ858 (VVTS-RCNN)Gudetama. Chen
Scenery:
METAR : VVTS 110300Z VRB01KT 8000 BKN015 31/25 Q1008 NOSIG

新山一國際機場SGN

You are accessing this site from IP address 34.229.119.29. Virtual Airline. CMS by phpVMS.Website designed by Zumeweb and edited by Theo Bearman.
There is 1 User(s) Online: | Lun Wang | and 15 Guest(s) Online.
All information on this site is for fight simulation purposes only. This site is for flight logging for pilots of Virtual Airline&模擬飛行論壇 FlySim only.